Terminal Aerodrome Forecast
Issued by NWS Sioux Falls, SD

Home | Current Version | Previous Version | Graphics & Text | Print | Product List | Glossary Off
Versions: 1 2 3 4 5 6 7 8 9 10 11 12 13 14

000
FTUS43 KFSD 302320
TAFFSD
TAF
KFSD 302320Z 0100/0124 16008KT P6SM SKC
     FM010900 19009KT P6SM OVC070
      TEMPO 0109/0111 P6SM -SHRA BKN050
     FM011500 24009KT P6SM SCT050=

USA.gov is the U.S. government's official web portal to all federal, state and local government web resources and services.